Island Grove, Illinois
Current Conditions -  °F | °C
As of 6:35 PM on Monday 24 Nov 2014 (Local Time) from K1H2 Reporting Station
Overcast Overcast  
Wind Chill: 32°   Ceiling: 3800
Heat Index: 38°   Visibility: 10mi
Dew Point: 26°   Wind: 8mph
Humidity: 63%   Direction: 240°WSW
Pressure: 29.88"   Gusts: NA
Location:  39.1301°N, 88.4695°W
Report Text: K1H2 250035Z AUTO 24007KT 10SM OVC038 03/M03 A2988 RMK AO2 T00331032
Loading
Personal Weather Stations






























Interactive Weather Map New forecast layout! Learn more

10-Day Weather Forecast

Advertisements
Track Severe Weather on mobile